Terminal Aerodrome Forecast
Issued by NWS

Home | Current Version | Previous Version | Text Only | Print | Product List | Glossary On
Versions: 1 2 3 4 5 6 7 8 9 10 11 12 13 14 15 16 17 18 19 20 21 22 23 24 25 26 27 28 29 30
000
FTUS45 KGJT 101142
TAFRIL
TAF
KRIL 101142Z 1012/1112 00000KT P6SM FEW140 BKN200
     FM101700 VRB03KT P6SM VCSH OVC110
     FM102300 22004KT P6SM -RASN OVC045
     FM110200 24007KT 4SM -SN BR OVC035
     FM110500 26008KT 2SM -SN BR OVC035
     FM110800 25006KT 1 1/2SM -SN BR OVC020=

USA.gov is the U.S. government's official web portal to all federal, state and local government web resources and services.